Time;durP1;ratioP1;P1;durP2;ratioP2;P2;SDS_P1;SDS_P2;PMS_P1;PMS_P2;Temp;Humidity;BMP_temperature;BMP_pressure;BME280_temperature;BME280_humidity;BME280_pressure;Samples;Min_cycle;Max_cycle;Signal;HPM_P1;HPM_P2
2024/04/02 00:01:59;;;;;;;5.27;1.53;;;8.70;96.50;;;;;;4958788;28;37929;-76
2024/04/02 00:04:25;;;;;;;3.57;1.47;;;8.70;97.40;;;;;;4954150;28;36892;-77
2024/04/02 00:06:53;;;;;;;4.73;1.20;;;8.70;97.90;;;;;;4945808;28;39069;-78
2024/04/02 00:09:19;;;;;;;5.20;1.20;;;8.70;98.10;;;;;;4943867;28;38581;-77
2024/04/02 00:11:45;;;;;;;1.87;1.23;;;8.70;99.50;;;;;;4950746;28;39466;-77
2024/04/02 00:14:11;;;;;;;4.50;1.53;;;8.70;98.40;;;;;;4941778;28;37868;-77
2024/04/02 00:16:38;;;;;;;2.53;1.30;;;8.60;98.40;;;;;;4945449;28;38446;-76
2024/04/02 00:19:04;;;;;;;3.43;1.30;;;8.60;99.90;;;;;;4945890;28;40437;-77
2024/04/02 00:21:30;;;;;;;4.40;1.10;;;8.70;97.80;;;;;;4953746;28;37669;-77
2024/04/02 00:23:56;;;;;;;4.30;1.37;;;8.70;97.90;;;;;;4960563;28;36887;-76
2024/04/02 00:26:22;;;;;;;3.73;1.40;;;8.60;98.80;;;;;;4945614;28;40300;-77
2024/04/02 00:28:49;;;;;;;2.10;1.03;;;8.60;99.90;;;;;;4949384;28;40130;-76
2024/04/02 00:31:15;;;;;;;2.53;1.30;;;8.50;99.90;;;;;;4947316;28;37742;-77
2024/04/02 00:33:42;;;;;;;3.40;1.20;;;8.50;99.90;;;;;;4948553;28;38132;-77
2024/04/02 00:36:08;;;;;;;2.93;1.70;;;8.50;99.90;;;;;;4952063;28;39354;-77
2024/04/02 00:38:34;;;;;;;3.77;1.40;;;8.50;99.90;;;;;;4952543;28;39057;-77
2024/04/02 00:41:00;;;;;;;3.73;1.87;;;8.50;99.90;;;;;;4952867;28;38175;-76
2024/04/02 00:43:27;;;;;;;2.77;1.60;;;8.50;99.90;;;;;;4950628;28;35834;-76
2024/04/02 00:45:55;;;;;;;6.73;2.73;;;8.50;99.90;;;;;;4952584;28;40359;-77
2024/04/02 00:48:22;;;;;;;4.57;2.30;;;8.60;99.90;;;;;;4961576;28;38861;-77
2024/04/02 00:50:48;;;;;;;6.10;2.77;;;8.60;99.90;;;;;;4946014;28;38357;-77
2024/04/02 00:53:15;;;;;;;5.53;2.63;;;8.50;99.90;;;;;;4944480;28;36646;-77
2024/04/02 00:55:43;;;;;;;3.97;2.47;;;8.50;99.90;;;;;;4947097;28;39470;-76
2024/04/02 00:58:10;;;;;;;4.40;2.57;;;8.40;99.90;;;;;;4946017;28;38446;-76
2024/04/02 01:03:12;;;;;;;7.47;2.80;;;8.40;99.90;;;;;;5238919;23;20058;-78
2024/04/02 01:05:39;;;;;;;4.10;2.70;;;8.30;99.90;;;;;;4960884;28;40558;-78
2024/04/02 01:08:07;;;;;;;5.03;3.63;;;8.40;99.90;;;;;;4966132;28;38267;-78
2024/04/02 01:10:34;;;;;;;6.50;3.23;;;8.40;99.90;;;;;;4964084;28;39661;-78
2024/04/02 01:13:00;;;;;;;8.20;2.97;;;8.40;99.90;;;;;;4969354;28;37962;-78
2024/04/02 01:15:26;;;;;;;7.97;3.47;;;8.40;99.90;;;;;;4964669;28;38366;-78
2024/04/02 01:17:53;;;;;;;6.10;4.20;;;8.40;99.90;;;;;;4964750;28;39995;-78
2024/04/02 01:20:19;;;;;;;4.77;3.03;;;8.40;99.90;;;;;;4975208;28;38210;-78
2024/04/02 01:22:45;;;;;;;3.83;3.43;;;8.40;99.90;;;;;;4966007;28;37267;-77
2024/04/02 01:25:11;;;;;;;6.27;3.53;;;8.40;99.90;;;;;;4981110;28;40580;-78
2024/04/02 01:27:37;;;;;;;8.43;4.03;;;8.40;99.90;;;;;;4968240;28;38201;-78
2024/04/02 01:30:04;;;;;;;6.77;4.20;;;8.40;99.90;;;;;;4965925;28;37136;-78
2024/04/02 01:32:30;;;;;;;6.87;3.57;;;8.30;99.90;;;;;;4965281;28;47175;-78
2024/04/02 01:34:56;;;;;;;4.83;3.60;;;8.30;99.90;;;;;;4965798;28;42325;-78
2024/04/02 01:37:23;;;;;;;6.40;3.70;;;8.30;99.90;;;;;;4964154;28;39037;-78
2024/04/02 01:39:49;;;;;;;4.57;3.20;;;8.30;99.90;;;;;;4966789;28;38075;-78
2024/04/02 01:42:15;;;;;;;4.70;3.40;;;8.30;99.90;;;;;;4974974;28;37916;-78
2024/04/02 01:44:41;;;;;;;6.00;3.27;;;8.20;99.90;;;;;;4966321;28;39345;-78
2024/04/02 01:47:08;;;;;;;5.77;3.30;;;8.30;99.90;;;;;;4967313;28;40033;-78
2024/04/02 01:49:34;;;;;;;7.97;3.90;;;8.30;99.90;;;;;;4967581;28;38362;-78
2024/04/02 01:52:00;;;;;;;7.83;3.27;;;8.30;99.90;;;;;;4965020;28;37981;-78
2024/04/02 01:54:26;;;;;;;7.50;3.63;;;8.30;99.90;;;;;;4963813;28;39423;-78
2024/04/02 01:56:53;;;;;;;7.67;3.60;;;8.30;99.90;;;;;;4967044;28;38952;-78
2024/04/02 01:59:19;;;;;;;8.80;3.50;;;8.30;99.90;;;;;;4965551;28;39758;-78
2024/04/02 02:01:45;;;;;;;6.33;3.30;;;8.30;99.90;;;;;;4965621;28;37283;-79
2024/04/02 02:04:11;;;;;;;4.97;3.27;;;8.30;99.90;;;;;;4968803;28;39284;-78
2024/04/02 02:06:37;;;;;;;4.57;3.60;;;8.30;99.90;;;;;;4966412;28;38464;-78
2024/04/02 02:09:03;;;;;;;7.03;3.70;;;8.30;99.90;;;;;;4963773;28;39552;-78
2024/04/02 02:11:30;;;;;;;6.90;3.90;;;8.20;99.90;;;;;;4970072;28;38013;-78
2024/04/02 02:13:59;;;;;;;6.93;3.87;;;8.20;99.90;;;;;;4978515;28;39688;-78
2024/04/02 02:16:26;;;;;;;7.00;3.47;;;8.10;99.90;;;;;;4974599;28;39127;-78
2024/04/02 02:18:55;;;;;;;7.50;3.87;;;8.10;99.90;;;;;;4966766;28;36852;-78
2024/04/02 02:21:21;;;;;;;5.80;3.50;;;8.10;99.90;;;;;;4962228;28;37649;-78
2024/04/02 02:23:50;;;;;;;6.17;3.67;;;8.10;99.90;;;;;;4964191;28;38277;-78
2024/04/02 02:26:18;;;;;;;6.33;3.40;;;8.10;99.90;;;;;;4962997;28;39025;-78
2024/04/02 02:28:45;;;;;;;6.50;3.67;;;8.10;99.90;;;;;;4965660;28;39079;-79
2024/04/02 02:31:11;;;;;;;7.03;3.80;;;8.10;99.90;;;;;;4964053;28;36815;-78
2024/04/02 02:33:37;;;;;;;7.93;3.87;;;8.10;99.90;;;;;;4965244;28;38955;-78
2024/04/02 02:36:03;;;;;;;5.33;3.40;;;8.10;99.90;;;;;;4965930;28;37430;-78
2024/04/02 02:38:29;;;;;;;9.83;3.50;;;8.10;99.90;;;;;;4966338;28;38517;-78
2024/04/02 02:41:00;;;;;;;5.47;3.30;;;8.10;99.90;;;;;;4964004;28;36222;-78
2024/04/02 02:43:26;;;;;;;4.50;3.27;;;8.00;99.90;;;;;;4973931;28;38865;-79
2024/04/02 02:45:52;;;;;;;7.93;3.60;;;8.00;99.90;;;;;;4977888;28;40022;-78
2024/04/02 02:48:18;;;;;;;7.77;3.50;;;8.00;99.90;;;;;;4969325;28;37827;-78
2024/04/02 02:50:44;;;;;;;8.30;4.13;;;8.00;99.90;;;;;;4967237;28;37014;-78
2024/04/02 02:53:11;;;;;;;4.43;3.37;;;8.10;99.90;;;;;;4966382;28;40473;-78
2024/04/02 02:55:37;;;;;;;8.30;3.90;;;8.10;99.90;;;;;;4967044;28;38563;-79
2024/04/02 02:58:03;;;;;;;7.17;3.33;;;8.10;99.90;;;;;;4965293;28;37898;-78
2024/04/02 03:00:29;;;;;;;8.23;3.70;;;8.10;99.90;;;;;;4963032;28;36627;-79
2024/04/02 03:02:56;;;;;;;9.37;3.30;;;8.10;99.90;;;;;;4964365;28;39873;-79
2024/04/02 03:05:22;;;;;;;7.07;3.20;;;8.10;99.90;;;;;;4978632;28;39777;-78
2024/04/02 03:07:48;;;;;;;7.73;3.50;;;8.10;99.90;;;;;;4964512;28;38011;-78
2024/04/02 03:10:14;;;;;;;6.93;3.17;;;8.20;99.90;;;;;;4979271;28;37289;-79
2024/04/02 03:12:40;;;;;;;8.70;3.30;;;8.20;99.90;;;;;;4968370;28;40702;-78
2024/04/02 03:15:07;;;;;;;6.53;3.27;;;8.20;99.90;;;;;;4965216;28;38183;-78
2024/04/02 03:17:33;;;;;;;5.50;2.63;;;8.20;99.90;;;;;;4971397;28;39640;-78
2024/04/02 03:19:59;;;;;;;5.30;2.57;;;8.20;99.90;;;;;;4963532;28;38560;-78
2024/04/02 03:22:25;;;;;;;6.00;2.50;;;8.20;99.90;;;;;;4979333;28;39651;-78
2024/04/02 03:24:51;;;;;;;4.47;2.43;;;8.20;99.90;;;;;;4980902;28;38871;-78
2024/04/02 03:27:17;;;;;;;6.40;2.37;;;8.20;99.90;;;;;;4963596;28;38857;-78
2024/04/02 03:29:43;;;;;;;5.47;2.20;;;8.20;99.90;;;;;;4964921;28;37951;-78
2024/04/02 03:32:10;;;;;;;9.73;2.30;;;8.20;99.90;;;;;;4964225;28;37191;-78
2024/04/02 03:34:36;;;;;;;4.20;2.43;;;8.30;99.90;;;;;;4963155;28;38600;-78
2024/04/02 03:37:02;;;;;;;9.57;2.50;;;8.30;99.90;;;;;;4966764;28;38070;-78
2024/04/02 03:39:28;;;;;;;6.67;2.63;;;8.30;99.90;;;;;;4963874;28;37306;-78
2024/04/02 03:41:55;;;;;;;6.63;2.40;;;8.30;99.90;;;;;;4965265;28;40805;-78
2024/04/02 03:44:21;;;;;;;4.73;2.27;;;8.30;99.90;;;;;;4967073;28;39015;-78
2024/04/02 03:46:47;;;;;;;6.60;2.20;;;8.30;99.90;;;;;;4969550;28;38091;-78
2024/04/02 03:49:13;;;;;;;7.97;2.60;;;8.20;99.90;;;;;;4966535;28;37400;-78
2024/04/02 03:51:40;;;;;;;5.40;2.57;;;8.20;99.90;;;;;;4965884;28;38719;-79
2024/04/02 03:54:06;;;;;;;5.53;2.50;;;8.20;99.90;;;;;;4962033;28;39177;-78
2024/04/02 03:56:34;;;;;;;5.60;2.67;;;8.20;99.90;;;;;;4962966;28;37110;-78
2024/04/02 03:59:01;;;;;;;5.20;2.60;;;8.10;99.90;;;;;;4960593;28;39561;-79
2024/04/02 04:01:27;;;;;;;6.90;2.90;;;8.20;99.90;;;;;;4959301;28;47009;-79
2024/04/02 04:03:53;;;;;;;5.70;2.60;;;8.20;99.90;;;;;;4962478;28;39362;-78
2024/04/02 04:06:19;;;;;;;4.63;2.60;;;8.20;99.90;;;;;;4962234;28;39063;-79
2024/04/02 04:08:45;;;;;;;8.87;2.60;;;8.10;99.90;;;;;;4959822;28;37226;-78
2024/04/02 04:11:11;;;;;;;8.00;2.00;;;8.20;99.90;;;;;;4962785;28;39405;-79
2024/04/02 04:13:37;;;;;;;5.63;2.13;;;8.20;99.90;;;;;;4962691;28;36433;-78
2024/04/02 04:16:07;;;;;;;7.63;2.50;;;8.20;99.90;;;;;;4966480;28;38801;-79
2024/04/02 04:18:33;;;;;;;6.17;2.07;;;8.10;99.90;;;;;;4968622;28;36211;-78
2024/04/02 04:21:01;;;;;;;6.23;2.30;;;8.20;99.90;;;;;;4964659;28;37517;-78
2024/04/02 04:23:28;;;;;;;5.70;1.97;;;8.10;99.90;;;;;;4964471;28;38248;-78
2024/04/02 04:26:02;;;;;;;8.90;2.73;;;8.20;99.90;;;;;;4962252;28;38750;-79
2024/04/02 04:28:29;;;;;;;10.70;2.50;;;8.20;99.90;;;;;;4962966;28;48972;-79
2024/04/02 04:30:56;;;;;;;13.27;2.47;;;8.10;99.90;;;;;;4962453;28;37987;-79
2024/04/02 04:33:23;;;;;;;6.37;2.27;;;8.20;99.90;;;;;;4964673;28;38512;-78
2024/04/02 04:35:51;;;;;;;10.33;2.07;;;8.20;99.90;;;;;;4963001;28;37697;-79
2024/04/02 04:38:18;;;;;;;10.00;2.27;;;8.20;99.90;;;;;;4966991;28;38154;-79
2024/04/02 04:40:45;;;;;;;7.97;1.97;;;8.20;99.90;;;;;;4966314;28;39303;-79
2024/04/02 04:43:14;;;;;;;7.80;2.10;;;8.20;99.90;;;;;;4975417;28;38669;-79
2024/04/02 04:45:40;;;;;;;6.90;2.00;;;8.20;99.90;;;;;;4977185;28;38107;-79
2024/04/02 04:48:08;;;;;;;6.53;2.67;;;8.20;99.90;;;;;;4974787;28;38723;-79
2024/04/02 04:50:34;;;;;;;8.67;2.23;;;8.20;99.90;;;;;;4970509;28;37594;-78
2024/04/02 04:53:01;;;;;;;8.23;1.90;;;8.10;99.90;;;;;;4977095;28;38708;-79
2024/04/02 04:55:30;;;;;;;6.30;2.33;;;8.10;99.90;;;;;;4966972;28;48785;-78
2024/04/02 04:57:57;;;;;;;9.30;2.23;;;8.10;99.90;;;;;;4960127;28;36215;-79
2024/04/02 05:00:24;;;;;;;9.63;2.43;;;8.10;99.90;;;;;;4965570;28;37732;-79
2024/04/02 05:02:50;;;;;;;9.37;2.70;;;8.20;99.90;;;;;;4968360;28;39036;-79
2024/04/02 05:05:17;;;;;;;9.20;2.10;;;8.10;99.90;;;;;;4971568;28;37272;-79
2024/04/02 05:07:56;;;;;;;9.37;2.10;;;8.10;99.90;;;;;;4980066;28;36397;-79
2024/04/02 05:10:24;;;;;;;8.57;2.30;;;8.00;99.90;;;;;;4993943;28;38043;-78
2024/04/02 05:12:51;;;;;;;13.13;2.27;;;8.10;99.90;;;;;;4978279;28;37294;-79
2024/04/02 05:15:17;;;;;;;8.77;2.37;;;8.00;99.90;;;;;;4969634;28;37809;-79
2024/04/02 05:17:43;;;;;;;12.30;2.53;;;8.10;99.90;;;;;;4971575;28;35974;-79
2024/04/02 05:20:10;;;;;;;8.73;2.60;;;8.10;99.90;;;;;;4970306;28;38901;-78
2024/04/02 05:22:36;;;;;;;11.67;2.00;;;8.10;99.90;;;;;;4977839;28;37282;-79
2024/04/02 05:25:03;;;;;;;10.77;2.37;;;8.20;99.90;;;;;;4991923;28;38839;-79
2024/04/02 05:27:30;;;;;;;8.27;2.43;;;8.20;99.90;;;;;;4976288;28;36436;-79
2024/04/02 05:29:56;;;;;;;10.83;2.97;;;8.30;99.90;;;;;;4965404;28;37656;-79
2024/04/02 05:32:23;;;;;;;6.87;1.83;;;8.30;99.90;;;;;;4959990;28;37280;-78
2024/04/02 05:34:49;;;;;;;8.70;2.37;;;8.30;99.90;;;;;;4969641;28;38280;-79
2024/04/02 05:37:15;;;;;;;10.73;2.07;;;8.40;99.90;;;;;;4975090;28;37009;-78
2024/04/02 05:39:42;;;;;;;7.27;1.93;;;8.40;99.90;;;;;;4978316;28;37791;-79
2024/04/02 05:42:11;;;;;;;10.30;2.30;;;8.50;99.90;;;;;;4973518;28;38142;-79
2024/04/02 05:44:37;;;;;;;13.93;2.40;;;8.50;99.90;;;;;;4973124;28;38240;-79
2024/04/02 05:47:03;;;;;;;14.47;2.13;;;8.60;99.90;;;;;;4971900;28;38212;-79
2024/04/02 05:49:29;;;;;;;13.70;3.33;;;8.60;99.90;;;;;;4971588;28;38660;-79
2024/04/02 05:51:55;;;;;;;12.33;2.40;;;8.60;99.90;;;;;;4970983;28;39268;-79
2024/04/02 05:54:21;;;;;;;12.13;2.53;;;8.60;99.90;;;;;;4968733;28;38286;-79
2024/04/02 05:56:47;;;;;;;12.93;2.33;;;8.60;99.90;;;;;;4968618;28;36196;-79
2024/04/02 05:59:13;;;;;;;5.93;1.80;;;8.70;99.90;;;;;;4968909;28;38677;-79
2024/04/02 06:01:39;;;;;;;10.23;2.37;;;8.80;99.90;;;;;;4970131;28;38292;-79
2024/04/02 06:04:05;;;;;;;7.30;2.50;;;8.90;99.90;;;;;;4971156;28;37881;-79
2024/04/02 06:06:32;;;;;;;11.20;2.47;;;8.90;99.90;;;;;;4971965;28;37694;-79
2024/04/02 06:08:58;;;;;;;7.57;1.87;;;9.00;99.90;;;;;;4972594;28;40557;-78
2024/04/02 06:11:24;;;;;;;16.10;2.23;;;9.00;99.90;;;;;;4971421;28;39161;-79
2024/04/02 06:13:50;;;;;;;9.37;2.20;;;9.10;99.90;;;;;;4974095;28;37030;-79
2024/04/02 06:16:16;;;;;;;10.53;2.50;;;9.10;99.90;;;;;;4967735;28;37364;-78
2024/04/02 06:18:42;;;;;;;11.93;2.17;;;9.10;99.90;;;;;;4977021;28;37839;-79
2024/04/02 06:21:09;;;;;;;10.70;2.40;;;9.10;99.90;;;;;;4970785;28;38650;-79
2024/04/02 06:23:35;;;;;;;10.80;2.60;;;9.20;99.90;;;;;;4964134;28;38642;-80
2024/04/02 06:26:01;;;;;;;12.83;2.50;;;9.20;99.90;;;;;;4967117;28;38191;-79
2024/04/02 06:28:27;;;;;;;9.60;2.07;;;9.20;99.90;;;;;;4972305;28;48339;-79
2024/04/02 06:30:54;;;;;;;11.43;2.33;;;9.20;99.90;;;;;;4966663;28;37596;-80
2024/04/02 06:33:20;;;;;;;14.53;2.90;;;9.30;99.90;;;;;;4974087;28;37462;-80
2024/04/02 06:35:46;;;;;;;12.37;3.03;;;9.30;99.90;;;;;;4973356;28;36596;-79
2024/04/02 06:38:12;;;;;;;12.13;2.57;;;9.40;99.90;;;;;;4975119;28;39144;-79
2024/04/02 06:40:38;;;;;;;14.53;2.60;;;9.40;99.90;;;;;;4976576;28;39268;-79
2024/04/02 06:43:04;;;;;;;11.97;2.07;;;9.50;99.90;;;;;;4977975;28;38449;-79
2024/04/02 06:45:30;;;;;;;16.63;2.57;;;9.50;99.90;;;;;;4983207;28;38654;-79
2024/04/02 06:47:56;;;;;;;12.33;2.13;;;9.50;99.90;;;;;;4970961;28;38407;-80
2024/04/02 06:50:23;;;;;;;12.20;2.00;;;9.50;99.90;;;;;;4969048;28;39258;-78
2024/04/02 06:52:49;;;;;;;9.57;1.97;;;9.60;99.90;;;;;;4970860;28;37309;-79
2024/04/02 06:55:15;;;;;;;10.30;2.20;;;9.60;99.90;;;;;;4974015;28;37481;-79
2024/04/02 06:57:41;;;;;;;14.83;2.37;;;9.60;99.90;;;;;;4974464;28;38592;-79
2024/04/02 07:00:09;;;;;;;14.73;2.45;;;9.70;99.90;;;;;;4972523;28;38630;-80
2024/04/02 07:02:35;;;;;;;12.30;2.47;;;9.70;99.90;;;;;;4958941;28;40075;-77
2024/04/02 07:05:01;;;;;;;9.88;2.47;;;9.70;99.90;;;;;;4968515;28;37260;-80
2024/04/02 07:07:27;;;;;;;14.87;2.70;;;9.70;99.90;;;;;;4970262;28;37691;-80
2024/04/02 07:09:53;;;;;;;14.10;2.10;;;9.70;99.90;;;;;;4978212;28;37172;-79
2024/04/02 07:12:19;;;;;;;9.82;2.70;;;9.80;99.90;;;;;;4971531;28;37740;-80
2024/04/02 07:14:45;;;;;;;16.30;3.00;;;9.80;99.90;;;;;;4967204;28;39002;-80
2024/04/02 07:17:12;;;;;;;12.13;2.70;;;9.80;95.40;;;;;;4973506;28;38935;-80
2024/04/02 07:19:38;;;;;;;15.88;3.50;;;9.90;99.60;;;;;;4968962;28;38798;-77
2024/04/02 07:22:04;;;;;;;17.53;3.43;;;10.00;90.40;;;;;;4978923;28;38913;-80
2024/04/02 07:24:30;;;;;;;13.52;2.78;;;10.00;93.40;;;;;;4985968;28;35824;-77
2024/04/02 07:26:56;;;;;;;16.73;2.50;;;10.10;94.80;;;;;;4987357;28;37429;-78
2024/04/02 07:29:22;;;;;;;9.38;2.85;;;10.10;80.40;;;;;;4978817;28;37836;-78
2024/04/02 07:31:48;;;;;;;15.82;3.03;;;10.00;78.80;;;;;;4986837;28;37079;-78
2024/04/02 07:34:14;;;;;;;10.77;3.03;;;10.00;85.90;;;;;;4993740;28;38555;-80
2024/04/02 07:36:42;;;;;;;12.53;3.10;;;10.00;80.70;;;;;;4980654;28;37684;-78
2024/04/02 07:39:08;;;;;;;13.57;2.85;;;10.10;77.90;;;;;;4979390;28;39010;-80
2024/04/02 07:41:34;;;;;;;10.23;2.53;;;10.00;75.40;;;;;;4980447;28;36925;-78
2024/04/02 07:44:00;;;;;;;15.50;2.90;;;10.10;85.50;;;;;;4975059;28;37281;-80
2024/04/02 07:46:26;;;;;;;14.03;2.60;;;10.20;79.00;;;;;;4980699;28;40090;-79
2024/04/02 07:48:52;;;;;;;14.87;2.70;;;10.20;56.40;;;;;;4986124;28;39869;-80
2024/04/02 07:51:18;;;;;;;12.43;2.75;;;10.30;47.40;;;;;;4986434;28;39570;-80
2024/04/02 07:53:45;;;;;;;14.02;2.97;;;10.40;45.00;;;;;;4984795;28;35745;-80
2024/04/02 07:56:11;;;;;;;14.37;2.43;;;10.40;45.30;;;;;;4987666;28;40241;-80
2024/04/02 07:58:37;;;;;;;17.10;2.92;;;10.40;39.80;;;;;;4982445;28;37304;-78
2024/04/02 08:01:03;;;;;;;8.95;2.60;;;10.40;39.30;;;;;;4996209;28;39446;-78
2024/04/02 08:03:29;;;;;;;10.52;2.38;;;10.50;35.90;;;;;;4989690;28;37087;-78
2024/04/02 08:05:58;;;;;;;10.98;2.33;;;10.50;24.90;;;;;;4982412;28;37399;-78
2024/04/02 08:08:25;;;;;;;13.38;3.53;;;10.70;31.10;;;;;;4995181;28;37425;-78
2024/04/02 08:10:51;;;;;;;17.45;3.05;;;10.80;18.80;;;;;;4988453;28;37035;-78
2024/04/02 08:13:17;;;;;;;11.07;2.20;;;11.00;23.80;;;;;;4986280;28;37770;-78
2024/04/02 08:15:45;;;;;;;10.70;2.40;;;11.10;4.30;;;;;;4981761;28;37540;-79
2024/04/02 08:18:11;;;;;;;14.20;2.55;;;11.10;9.10;;;;;;4985843;28;38523;-79
2024/04/02 08:20:37;;;;;;;20.52;3.05;;;11.00;1.00;;;;;;4987510;28;38412;-78
2024/04/02 08:23:06;;;;;;;11.77;2.58;;;11.00;6.90;;;;;;4983142;28;36190;-79
2024/04/02 08:25:33;;;;;;;13.68;2.55;;;10.90;9.30;;;;;;4977774;28;37581;-79
2024/04/02 08:27:59;;;;;;;13.05;2.53;;;10.80;1.00;;;;;;4981741;28;36882;-79
2024/04/02 08:30:25;;;;;;;15.23;3.00;;;10.70;1.00;;;;;;4991223;28;38764;-79
2024/04/02 08:32:51;;;;;;;14.48;3.95;;;10.70;12.80;;;;;;4991582;28;37412;-78
2024/04/02 08:35:17;;;;;;;10.93;2.60;;;10.70;3.90;;;;;;4988678;28;39030;-79
2024/04/02 08:37:43;;;;;;;13.52;2.67;;;10.70;2.60;;;;;;4982798;28;37406;-78
2024/04/02 08:40:09;;;;;;;12.18;3.00;;;10.80;6.30;;;;;;4981226;28;38073;-79
2024/04/02 08:42:37;;;;;;;14.57;2.83;;;10.80;1.00;;;;;;4981589;28;35950;-78
2024/04/02 08:45:06;;;;;;;10.82;2.63;;;10.70;18.70;;;;;;4986292;28;38779;-79
2024/04/02 08:47:34;;;;;;;10.32;2.70;;;10.70;51.80;;;;;;4984572;28;47644;-78
2024/04/02 08:50:02;;;;;;;13.80;2.85;;;10.70;80.60;;;;;;4979598;28;38178;-78
2024/04/02 08:52:28;;;;;;;13.32;3.22;;;10.50;94.90;;;;;;4980370;28;35966;-79
2024/04/02 08:54:54;;;;;;;11.68;2.88;;;10.40;99.90;;;;;;4989478;28;40419;-79
2024/04/02 08:57:20;;;;;;;17.05;3.13;;;10.40;98.70;;;;;;4988863;28;38094;-79
2024/04/02 08:59:48;;;;;;;14.00;2.80;;;10.40;85.70;;;;;;4989066;28;39200;-79
2024/04/02 09:02:15;;;;;;;17.73;4.05;;;10.40;72.60;;;;;;4982283;28;37824;-79
2024/04/02 09:04:41;;;;;;;13.25;2.65;;;10.50;75.00;;;;;;4976482;28;39002;-78
2024/04/02 09:07:07;;;;;;;13.25;2.90;;;10.40;73.60;;;;;;4984657;28;39645;-78
2024/04/02 09:09:34;;;;;;;15.00;3.55;;;10.40;77.20;;;;;;4984017;28;39216;-79
2024/04/02 09:12:03;;;;;;;14.95;2.75;;;10.40;76.40;;;;;;4986490;28;37171;-79
2024/04/02 09:14:33;;;;;;;9.82;2.50;;;10.40;95.60;;;;;;4986013;28;49910;-79
2024/04/02 09:16:59;;;;;;;14.17;3.33;;;10.30;99.90;;;;;;4999429;28;38495;-78
2024/04/02 09:19:26;;;;;;;12.15;2.75;;;10.30;99.40;;;;;;4990017;28;39074;-78
2024/04/02 09:21:52;;;;;;;17.07;3.47;;;10.30;99.90;;;;;;4985863;28;38670;-79
2024/04/02 09:24:18;;;;;;;14.93;3.13;;;10.20;99.90;;;;;;4992125;28;38571;-79
2024/04/02 09:26:44;;;;;;;20.97;4.03;;;10.20;99.90;;;;;;5001700;28;38637;-79
2024/04/02 09:29:11;;;;;;;14.48;3.85;;;10.20;99.90;;;;;;4997489;28;38175;-79
2024/04/02 09:31:37;;;;;;;16.02;3.38;;;10.20;99.90;;;;;;4985931;28;36763;-78
2024/04/02 09:34:08;;;;;;;12.00;2.97;;;10.20;99.90;;;;;;5000488;28;38707;-78
2024/04/02 09:36:48;;;;;;;16.45;3.63;;;10.30;99.90;;;;;;5004061;28;39102;-79
2024/04/02 09:39:15;;;;;;;13.93;2.73;;;10.20;99.90;;;;;;4985641;28;38147;-79
2024/04/02 09:41:45;;;;;;;12.57;4.10;;;10.20;99.90;;;;;;4995080;28;37853;-78
2024/04/02 09:44:15;;;;;;;13.20;3.30;;;10.20;99.90;;;;;;4974596;28;38531;-79
2024/04/02 09:46:42;;;;;;;16.23;3.13;;;10.20;99.90;;;;;;4983711;28;39722;-79
2024/04/02 09:49:10;;;;;;;9.93;2.80;;;10.20;99.90;;;;;;4990007;28;38844;-79
2024/04/02 09:51:39;;;;;;;11.20;2.67;;;10.20;99.90;;;;;;4990210;28;36158;-79
2024/04/02 09:54:06;;;;;;;10.40;2.53;;;10.20;99.90;;;;;;4989020;28;37538;-78
2024/04/02 09:56:33;;;;;;;10.70;2.65;;;10.30;99.90;;;;;;4989801;28;38437;-79
2024/04/02 09:59:04;;;;;;;11.90;2.73;;;10.30;99.90;;;;;;4984927;28;39092;-78
2024/04/02 10:01:35;;;;;;;9.77;3.13;;;10.50;99.90;;;;;;4983711;28;48139;-79
2024/04/02 10:04:06;;;;;;;15.63;2.97;;;10.60;99.90;;;;;;4987667;28;37361;-79
2024/04/02 10:06:36;;;;;;;12.02;2.47;;;10.80;99.90;;;;;;4986186;28;49313;-79
2024/04/02 10:09:07;;;;;;;9.30;2.38;;;10.90;96.90;;;;;;4984141;28;38902;-78
2024/04/02 10:11:41;;;;;;;11.10;2.17;;;11.00;65.30;;;;;;4984961;28;37536;-79
2024/04/02 10:14:09;;;;;;;10.73;2.45;;;11.20;40.60;;;;;;4977497;28;39660;-78
2024/04/02 10:16:39;;;;;;;9.82;2.50;;;11.30;31.60;;;;;;4984163;28;38626;-78
2024/04/02 10:19:05;;;;;;;7.82;2.00;;;11.30;38.90;;;;;;4989709;28;39494;-79
2024/04/02 10:21:33;;;;;;;9.13;2.65;;;11.50;20.80;;;;;;4985180;28;37863;-79
2024/04/02 10:23:59;;;;;;;11.23;2.20;;;11.50;17.70;;;;;;4986473;28;39226;-79
2024/04/02 10:26:32;;;;;;;13.07;3.08;;;11.50;12.50;;;;;;4982356;28;37298;-79
2024/04/02 10:28:59;;;;;;;8.57;2.03;;;11.50;14.40;;;;;;4992034;28;38706;-80
2024/04/02 10:31:40;;;;;;;16.38;3.55;;;11.60;17.70;;;;;;4983705;28;38601;-79
2024/04/02 10:34:12;;;;;;;7.55;1.90;;;11.60;3.00;;;;;;4983000;28;39531;-79
2024/04/02 10:36:40;;;;;;;6.10;1.52;;;11.60;5.60;;;;;;4981014;28;38405;-79
2024/04/02 10:39:10;;;;;;;8.18;1.80;;;11.60;1.00;;;;;;4974853;28;38432;-79
2024/04/02 10:41:37;;;;;;;10.10;1.92;;;11.70;1.00;;;;;;4976096;28;37908;-79
2024/04/02 10:44:04;;;;;;;9.45;1.88;;;11.60;1.00;;;;;;4970219;28;39567;-77
2024/04/02 10:46:31;;;;;;;9.40;1.90;;;11.60;1.00;;;;;;4964551;28;38216;-78
2024/04/02 10:49:02;;;;;;;10.18;1.83;;;11.60;15.50;;;;;;4974590;28;38953;-78
2024/04/02 10:51:30;;;;;;;5.13;1.20;;;12.00;11.50;;;;;;4969705;28;47342;-79
2024/04/02 10:53:57;;;;;;;5.03;1.10;;;12.30;1.00;;;;;;4964848;28;36748;-79
2024/04/02 10:56:24;;;;;;;3.70;1.10;;;12.50;1.00;;;;;;4978634;28;38233;-79
2024/04/02 10:58:54;;;;;;;8.55;1.80;;;12.60;1.00;;;;;;4981209;28;37701;-79
2024/04/02 11:01:22;;;;;;;8.98;2.10;;;12.70;1.00;;;;;;4972697;28;37446;-79
2024/04/02 11:03:50;;;;;;;6.80;1.73;;;12.90;1.00;;;;;;4976726;28;39425;-79
2024/04/02 11:06:17;;;;;;;8.35;1.50;;;12.90;1.00;;;;;;4972689;28;38992;-78
2024/04/02 11:08:48;;;;;;;4.47;1.70;;;12.90;1.00;;;;;;4977517;28;39649;-80
2024/04/02 11:11:23;;;;;;;6.97;1.90;;;12.70;1.00;;;;;;4976372;28;37724;-79
2024/04/02 11:13:49;;;;;;;8.43;1.40;;;12.50;1.00;;;;;;4985479;28;37488;-80
2024/04/02 11:16:17;;;;;;;7.00;1.42;;;12.40;1.00;;;;;;4981106;28;38105;-80
2024/04/02 11:18:44;;;;;;;6.97;1.50;;;12.20;1.00;;;;;;4983042;28;37731;-79
2024/04/02 11:21:17;;;;;;;6.45;1.30;;;12.30;1.00;;;;;;4973619;28;36809;-78
2024/04/02 11:26:29;;;;;;;6.13;1.85;;;12.30;1.00;;;;;;4975713;28;49443;-79
2024/04/02 11:29:05;;;;;;;12.02;3.08;;;11.80;40.60;;;;;;4971556;28;37295;-79
2024/04/02 11:31:32;;;;;;;6.72;1.80;;;11.60;95.80;;;;;;4966410;28;48552;-79
2024/04/02 11:34:00;;;;;;;4.88;1.63;;;11.70;98.80;;;;;;4972766;28;39011;-79
2024/04/02 11:36:26;;;;;;;9.75;1.70;;;11.70;94.20;;;;;;4978771;28;41160;-78
2024/04/02 11:38:52;;;;;;;5.93;2.05;;;11.70;92.00;;;;;;5322019;23;38184;-80
2024/04/02 11:41:18;;;;;;;7.13;2.10;;;11.60;97.90;;;;;;4974714;28;34554;-79
2024/04/02 11:43:44;;;;;;;11.70;2.50;;;11.40;99.90;;;;;;4978177;28;38937;-78
2024/04/02 11:46:11;;;;;;;8.88;2.60;;;11.10;99.90;;;;;;4967468;28;39398;-77
2024/04/02 11:48:37;;;;;;;13.23;2.75;;;11.00;99.90;;;;;;4969975;28;38505;-77
2024/04/02 11:51:04;;;;;;;9.55;2.70;;;11.00;99.90;;;;;;4969438;28;37508;-77
2024/04/02 11:53:30;;;;;;;11.32;3.10;;;11.00;99.90;;;;;;4981132;28;47189;-77
2024/04/02 11:55:56;;;;;;;12.40;3.72;;;10.90;99.90;;;;;;4966797;28;38951;-77
2024/04/02 12:01:07;;;;;;;16.45;3.80;;;11.00;99.90;;;;;;4967264;28;38265;-76
2024/04/02 12:03:33;;;;;;;16.08;4.53;;;10.90;99.90;;;;;;4969899;28;38943;-76
2024/04/02 12:05:59;;;;;;;9.18;3.38;;;10.80;99.90;;;;;;4968009;28;38332;-76
2024/04/02 12:08:26;;;;;;;16.10;3.88;;;10.80;99.90;;;;;;4969963;28;39685;-77
2024/04/02 12:10:52;;;;;;;18.60;4.47;;;10.70;99.90;;;;;;4967754;28;38174;-77
2024/04/02 12:13:18;;;;;;;11.02;3.70;;;10.70;99.90;;;;;;4971605;28;38403;-76
2024/04/02 12:15:44;;;;;;;14.80;4.05;;;10.70;99.90;;;;;;4967652;28;39688;-76
2024/04/02 12:18:10;;;;;;;10.95;3.03;;;10.70;99.90;;;;;;4970278;28;37568;-76
2024/04/02 12:20:36;;;;;;;11.25;3.53;;;10.80;99.90;;;;;;4963994;28;37659;-77
2024/04/02 12:23:04;;;;;;;11.95;3.35;;;10.90;99.90;;;;;;4970304;28;39478;-76
2024/04/02 12:25:30;;;;;;;14.02;3.63;;;10.90;99.90;;;;;;4965159;28;38765;-76
2024/04/02 12:27:57;;;;;;;7.07;2.58;;;11.20;99.90;;;;;;4966790;28;39081;-76
2024/04/02 12:30:23;;;;;;;10.02;2.85;;;11.30;99.90;;;;;;4961838;28;38636;-76
2024/04/02 12:32:49;;;;;;;11.80;2.15;;;11.40;99.90;;;;;;4971213;28;39496;-76
2024/04/02 12:35:18;;;;;;;7.53;2.40;;;11.50;99.90;;;;;;4966438;28;36524;-76
2024/04/02 12:37:44;;;;;;;7.45;2.35;;;11.60;99.90;;;;;;4961568;28;38055;-76
2024/04/02 12:40:11;;;;;;;8.63;2.55;;;11.70;99.90;;;;;;4963678;28;37920;-76
2024/04/02 12:42:37;;;;;;;7.35;2.42;;;11.70;99.90;;;;;;4968902;28;40005;-76
2024/04/02 12:45:05;;;;;;;9.77;2.83;;;11.70;99.90;;;;;;4965157;28;37607;-76
2024/04/02 12:47:31;;;;;;;9.90;2.10;;;11.70;99.90;;;;;;4977846;28;47404;-76
2024/04/02 12:49:57;;;;;;;4.57;1.50;;;11.70;99.90;;;;;;4970755;28;37001;-76
2024/04/02 12:52:24;;;;;;;3.47;1.10;;;11.80;99.90;;;;;;4966543;28;40646;-76
2024/04/02 12:54:51;;;;;;;4.15;1.40;;;11.90;99.90;;;;;;4965833;28;39640;-75
2024/04/02 12:57:17;;;;;;;4.15;1.00;;;11.90;99.90;;;;;;4974612;28;39258;-76